sensor_id;sensor_type;location;lat;lon;timestamp;P1;durP1;ratioP1;P2;durP2;ratioP2
44564;SDS011;30275;51.822;-0.326;2023-04-21T00:00:22;26.65;;;13.20;;
44564;SDS011;30275;51.822;-0.326;2023-04-21T00:02:48;26.92;;;12.50;;
44564;SDS011;30275;51.822;-0.326;2023-04-21T00:05:14;27.95;;;13.60;;
44564;SDS011;30275;51.822;-0.326;2023-04-21T00:07:39;21.42;;;13.15;;
44564;SDS011;30275;51.822;-0.326;2023-04-21T00:10:06;24.35;;;13.25;;
44564;SDS011;30275;51.822;-0.326;2023-04-21T00:12:32;23.95;;;12.93;;
44564;SDS011;30275;51.822;-0.326;2023-04-21T00:14:58;27.50;;;13.68;;
44564;SDS011;30275;51.822;-0.326;2023-04-21T00:17:24;24.77;;;13.90;;
44564;SDS011;30275;51.822;-0.326;2023-04-21T00:19:49;24.52;;;13.25;;
44564;SDS011;30275;51.822;-0.326;2023-04-21T00:22:15;24.15;;;13.05;;
44564;SDS011;30275;51.822;-0.326;2023-04-21T00:24:42;31.88;;;13.93;;
44564;SDS011;30275;51.822;-0.326;2023-04-21T00:27:07;23.27;;;13.73;;
44564;SDS011;30275;51.822;-0.326;2023-04-21T00:29:33;27.77;;;12.85;;
44564;SDS011;30275;51.822;-0.326;2023-04-21T00:31:59;26.10;;;14.00;;
44564;SDS011;30275;51.822;-0.326;2023-04-21T00:34:25;23.90;;;13.63;;
44564;SDS011;30275;51.822;-0.326;2023-04-21T00:36:51;28.40;;;14.77;;
44564;SDS011;30275;51.822;-0.326;2023-04-21T00:39:17;28.55;;;13.95;;
44564;SDS011;30275;51.822;-0.326;2023-04-21T00:41:42;27.15;;;13.40;;
44564;SDS011;30275;51.822;-0.326;2023-04-21T00:44:08;27.77;;;14.85;;
44564;SDS011;30275;51.822;-0.326;2023-04-21T00:46:34;25.77;;;13.90;;
44564;SDS011;30275;51.822;-0.326;2023-04-21T00:49:03;29.08;;;13.02;;
44564;SDS011;30275;51.822;-0.326;2023-04-21T00:51:30;30.02;;;14.15;;
44564;SDS011;30275;51.822;-0.326;2023-04-21T00:53:58;26.23;;;14.07;;
44564;SDS011;30275;51.822;-0.326;2023-04-21T00:56:27;26.98;;;15.77;;
44564;SDS011;30275;51.822;-0.326;2023-04-21T00:58:54;30.15;;;14.50;;
44564;SDS011;30275;51.822;-0.326;2023-04-21T01:01:21;27.27;;;14.80;;
44564;SDS011;30275;51.822;-0.326;2023-04-21T01:03:48;27.15;;;13.73;;
44564;SDS011;30275;51.822;-0.326;2023-04-21T01:06:14;28.60;;;15.10;;
44564;SDS011;30275;51.822;-0.326;2023-04-21T01:08:40;26.98;;;15.07;;
44564;SDS011;30275;51.822;-0.326;2023-04-21T01:11:09;31.83;;;15.20;;
44564;SDS011;30275;51.822;-0.326;2023-04-21T01:13:36;30.92;;;14.98;;
44564;SDS011;30275;51.822;-0.326;2023-04-21T01:16:02;28.50;;;15.18;;
44564;SDS011;30275;51.822;-0.326;2023-04-21T01:18:27;27.05;;;15.88;;
44564;SDS011;30275;51.822;-0.326;2023-04-21T01:20:54;25.73;;;14.52;;
44564;SDS011;30275;51.822;-0.326;2023-04-21T01:23:19;29.45;;;14.90;;
44564;SDS011;30275;51.822;-0.326;2023-04-21T01:25:45;28.30;;;15.45;;
44564;SDS011;30275;51.822;-0.326;2023-04-21T01:28:11;27.75;;;14.60;;
44564;SDS011;30275;51.822;-0.326;2023-04-21T01:30:37;27.35;;;14.50;;
44564;SDS011;30275;51.822;-0.326;2023-04-21T01:33:02;29.83;;;14.55;;
44564;SDS011;30275;51.822;-0.326;2023-04-21T01:35:28;36.45;;;16.23;;
44564;SDS011;30275;51.822;-0.326;2023-04-21T01:37:54;28.90;;;14.55;;
44564;SDS011;30275;51.822;-0.326;2023-04-21T01:40:19;28.00;;;15.52;;
44564;SDS011;30275;51.822;-0.326;2023-04-21T01:42:45;27.65;;;15.60;;
44564;SDS011;30275;51.822;-0.326;2023-04-21T01:45:11;29.27;;;16.73;;
44564;SDS011;30275;51.822;-0.326;2023-04-21T01:47:36;27.45;;;16.30;;
44564;SDS011;30275;51.822;-0.326;2023-04-21T01:50:02;31.77;;;16.73;;
44564;SDS011;30275;51.822;-0.326;2023-04-21T01:52:28;30.42;;;15.85;;
44564;SDS011;30275;51.822;-0.326;2023-04-21T01:54:54;29.83;;;16.23;;
44564;SDS011;30275;51.822;-0.326;2023-04-21T01:57:19;28.58;;;16.20;;
44564;SDS011;30275;51.822;-0.326;2023-04-21T01:59:45;28.45;;;15.60;;
44564;SDS011;30275;51.822;-0.326;2023-04-21T02:02:12;27.70;;;16.23;;
44564;SDS011;30275;51.822;-0.326;2023-04-21T02:04:37;28.30;;;14.68;;
44564;SDS011;30275;51.822;-0.326;2023-04-21T02:07:03;27.45;;;15.32;;
44564;SDS011;30275;51.822;-0.326;2023-04-21T02:09:29;27.95;;;16.42;;
44564;SDS011;30275;51.822;-0.326;2023-04-21T02:11:55;30.25;;;17.48;;
44564;SDS011;30275;51.822;-0.326;2023-04-21T02:14:21;31.58;;;16.00;;
44564;SDS011;30275;51.822;-0.326;2023-04-21T02:16:47;29.25;;;16.13;;
44564;SDS011;30275;51.822;-0.326;2023-04-21T02:19:12;30.85;;;16.45;;
44564;SDS011;30275;51.822;-0.326;2023-04-21T02:21:38;32.20;;;15.95;;
44564;SDS011;30275;51.822;-0.326;2023-04-21T02:24:03;36.25;;;16.08;;
44564;SDS011;30275;51.822;-0.326;2023-04-21T02:26:29;32.75;;;15.85;;
44564;SDS011;30275;51.822;-0.326;2023-04-21T02:28:55;29.73;;;15.85;;
44564;SDS011;30275;51.822;-0.326;2023-04-21T02:31:21;27.63;;;16.35;;
44564;SDS011;30275;51.822;-0.326;2023-04-21T02:33:46;30.60;;;15.77;;
44564;SDS011;30275;51.822;-0.326;2023-04-21T02:36:12;36.55;;;17.85;;
44564;SDS011;30275;51.822;-0.326;2023-04-21T02:38:38;29.38;;;16.05;;
44564;SDS011;30275;51.822;-0.326;2023-04-21T02:41:03;29.85;;;15.90;;
44564;SDS011;30275;51.822;-0.326;2023-04-21T02:43:29;31.05;;;17.42;;
44564;SDS011;30275;51.822;-0.326;2023-04-21T02:45:55;28.98;;;16.48;;
44564;SDS011;30275;51.822;-0.326;2023-04-21T02:48:20;31.60;;;15.48;;
44564;SDS011;30275;51.822;-0.326;2023-04-21T02:50:49;31.42;;;16.80;;
44564;SDS011;30275;51.822;-0.326;2023-04-21T02:53:17;32.72;;;16.27;;
44564;SDS011;30275;51.822;-0.326;2023-04-21T02:55:45;35.38;;;16.58;;
44564;SDS011;30275;51.822;-0.326;2023-04-21T02:58:11;35.25;;;16.83;;
44564;SDS011;30275;51.822;-0.326;2023-04-21T03:00:36;32.05;;;17.70;;
44564;SDS011;30275;51.822;-0.326;2023-04-21T03:03:02;25.70;;;16.42;;
44564;SDS011;30275;51.822;-0.326;2023-04-21T03:05:28;32.13;;;15.75;;
44564;SDS011;30275;51.822;-0.326;2023-04-21T03:07:53;32.88;;;14.82;;
44564;SDS011;30275;51.822;-0.326;2023-04-21T03:10:19;29.50;;;16.35;;
44564;SDS011;30275;51.822;-0.326;2023-04-21T03:12:45;36.53;;;17.83;;
44564;SDS011;30275;51.822;-0.326;2023-04-21T03:15:10;29.45;;;15.20;;
44564;SDS011;30275;51.822;-0.326;2023-04-21T03:17:38;35.38;;;16.55;;
44564;SDS011;30275;51.822;-0.326;2023-04-21T03:20:04;32.22;;;16.05;;
44564;SDS011;30275;51.822;-0.326;2023-04-21T03:22:32;37.33;;;17.88;;
44564;SDS011;30275;51.822;-0.326;2023-04-21T03:25:00;30.77;;;16.50;;
44564;SDS011;30275;51.822;-0.326;2023-04-21T03:27:26;30.35;;;16.05;;
44564;SDS011;30275;51.822;-0.326;2023-04-21T03:29:51;33.13;;;17.83;;
44564;SDS011;30275;51.822;-0.326;2023-04-21T03:32:17;29.60;;;17.55;;
44564;SDS011;30275;51.822;-0.326;2023-04-21T03:34:43;32.08;;;16.85;;
44564;SDS011;30275;51.822;-0.326;2023-04-21T03:37:08;33.33;;;18.23;;
44564;SDS011;30275;51.822;-0.326;2023-04-21T03:39:34;31.88;;;17.10;;
44564;SDS011;30275;51.822;-0.326;2023-04-21T03:41:59;37.83;;;18.60;;
44564;SDS011;30275;51.822;-0.326;2023-04-21T03:44:25;33.50;;;16.90;;
44564;SDS011;30275;51.822;-0.326;2023-04-21T03:46:51;32.08;;;16.45;;
44564;SDS011;30275;51.822;-0.326;2023-04-21T03:49:18;38.33;;;18.42;;
44564;SDS011;30275;51.822;-0.326;2023-04-21T03:51:44;32.30;;;17.08;;
44564;SDS011;30275;51.822;-0.326;2023-04-21T03:54:09;31.95;;;15.85;;
44564;SDS011;30275;51.822;-0.326;2023-04-21T03:56:35;32.25;;;16.65;;
44564;SDS011;30275;51.822;-0.326;2023-04-21T03:59:00;33.85;;;16.98;;
44564;SDS011;30275;51.822;-0.326;2023-04-21T04:01:26;33.45;;;18.00;;
44564;SDS011;30275;51.822;-0.326;2023-04-21T04:03:51;37.05;;;17.83;;
44564;SDS011;30275;51.822;-0.326;2023-04-21T04:06:17;40.13;;;17.58;;
44564;SDS011;30275;51.822;-0.326;2023-04-21T04:08:43;36.33;;;17.70;;
44564;SDS011;30275;51.822;-0.326;2023-04-21T04:11:08;35.63;;;17.25;;
44564;SDS011;30275;51.822;-0.326;2023-04-21T04:13:34;32.92;;;17.48;;
44564;SDS011;30275;51.822;-0.326;2023-04-21T04:15:59;36.00;;;18.00;;
44564;SDS011;30275;51.822;-0.326;2023-04-21T04:18:25;36.88;;;15.95;;
44564;SDS011;30275;51.822;-0.326;2023-04-21T04:20:50;34.58;;;17.98;;
44564;SDS011;30275;51.822;-0.326;2023-04-21T04:23:16;36.15;;;19.10;;
44564;SDS011;30275;51.822;-0.326;2023-04-21T04:25:41;39.50;;;18.30;;
44564;SDS011;30275;51.822;-0.326;2023-04-21T04:28:07;37.15;;;17.33;;
44564;SDS011;30275;51.822;-0.326;2023-04-21T04:30:33;35.63;;;18.60;;
44564;SDS011;30275;51.822;-0.326;2023-04-21T04:32:59;37.80;;;19.33;;
44564;SDS011;30275;51.822;-0.326;2023-04-21T04:35:25;33.33;;;18.08;;
44564;SDS011;30275;51.822;-0.326;2023-04-21T04:37:51;35.72;;;18.83;;
44564;SDS011;30275;51.822;-0.326;2023-04-21T04:40:17;34.72;;;18.30;;
44564;SDS011;30275;51.822;-0.326;2023-04-21T04:42:43;33.58;;;18.58;;
44564;SDS011;30275;51.822;-0.326;2023-04-21T04:45:11;36.42;;;20.95;;
44564;SDS011;30275;51.822;-0.326;2023-04-21T04:47:37;34.92;;;17.63;;
44564;SDS011;30275;51.822;-0.326;2023-04-21T04:50:03;37.45;;;18.35;;
44564;SDS011;30275;51.822;-0.326;2023-04-21T04:52:29;38.63;;;20.02;;
44564;SDS011;30275;51.822;-0.326;2023-04-21T04:54:55;35.38;;;20.30;;
44564;SDS011;30275;51.822;-0.326;2023-04-21T04:57:21;36.65;;;19.42;;
44564;SDS011;30275;51.822;-0.326;2023-04-21T04:59:47;37.85;;;18.30;;
44564;SDS011;30275;51.822;-0.326;2023-04-21T05:02:12;41.20;;;19.85;;
44564;SDS011;30275;51.822;-0.326;2023-04-21T05:04:38;38.72;;;20.20;;
44564;SDS011;30275;51.822;-0.326;2023-04-21T05:07:04;31.52;;;17.75;;
44564;SDS011;30275;51.822;-0.326;2023-04-21T05:09:31;34.78;;;17.92;;
44564;SDS011;30275;51.822;-0.326;2023-04-21T05:12:00;33.95;;;18.70;;
44564;SDS011;30275;51.822;-0.326;2023-04-21T05:14:26;33.50;;;17.92;;
44564;SDS011;30275;51.822;-0.326;2023-04-21T05:16:51;35.17;;;17.58;;
44564;SDS011;30275;51.822;-0.326;2023-04-21T05:19:17;34.40;;;18.23;;
44564;SDS011;30275;51.822;-0.326;2023-04-21T05:21:43;33.97;;;17.30;;
44564;SDS011;30275;51.822;-0.326;2023-04-21T05:24:08;31.20;;;17.95;;
44564;SDS011;30275;51.822;-0.326;2023-04-21T05:26:34;30.63;;;17.38;;
44564;SDS011;30275;51.822;-0.326;2023-04-21T05:28:59;31.42;;;16.85;;
44564;SDS011;30275;51.822;-0.326;2023-04-21T05:31:25;31.83;;;16.95;;
44564;SDS011;30275;51.822;-0.326;2023-04-21T05:33:51;26.77;;;16.23;;
44564;SDS011;30275;51.822;-0.326;2023-04-21T05:36:17;29.73;;;17.70;;
44564;SDS011;30275;51.822;-0.326;2023-04-21T05:38:44;28.42;;;16.45;;
44564;SDS011;30275;51.822;-0.326;2023-04-21T05:41:10;26.27;;;16.85;;
44564;SDS011;30275;51.822;-0.326;2023-04-21T05:43:36;27.98;;;15.65;;
44564;SDS011;30275;51.822;-0.326;2023-04-21T05:46:02;27.67;;;16.88;;
44564;SDS011;30275;51.822;-0.326;2023-04-21T05:48:32;25.98;;;16.02;;
44564;SDS011;30275;51.822;-0.326;2023-04-21T05:51:06;32.35;;;16.80;;
44564;SDS011;30275;51.822;-0.326;2023-04-21T05:53:40;27.92;;;16.13;;
44564;SDS011;30275;51.822;-0.326;2023-04-21T05:56:07;26.20;;;15.88;;
44564;SDS011;30275;51.822;-0.326;2023-04-21T05:58:33;24.65;;;15.60;;
44564;SDS011;30275;51.822;-0.326;2023-04-21T06:01:00;25.63;;;16.20;;
44564;SDS011;30275;51.822;-0.326;2023-04-21T06:03:26;24.27;;;16.30;;
44564;SDS011;30275;51.822;-0.326;2023-04-21T06:05:55;28.85;;;15.55;;
44564;SDS011;30275;51.822;-0.326;2023-04-21T06:08:23;25.27;;;15.25;;
44564;SDS011;30275;51.822;-0.326;2023-04-21T06:10:49;25.08;;;14.05;;
44564;SDS011;30275;51.822;-0.326;2023-04-21T06:13:14;22.88;;;14.50;;
44564;SDS011;30275;51.822;-0.326;2023-04-21T06:15:40;20.25;;;13.15;;
44564;SDS011;30275;51.822;-0.326;2023-04-21T06:18:06;21.27;;;13.95;;
44564;SDS011;30275;51.822;-0.326;2023-04-21T06:20:31;25.17;;;12.60;;
44564;SDS011;30275;51.822;-0.326;2023-04-21T06:22:57;22.73;;;12.85;;
44564;SDS011;30275;51.822;-0.326;2023-04-21T06:25:22;18.85;;;12.23;;
44564;SDS011;30275;51.822;-0.326;2023-04-21T06:27:48;23.70;;;13.32;;
44564;SDS011;30275;51.822;-0.326;2023-04-21T06:30:13;25.48;;;13.20;;
44564;SDS011;30275;51.822;-0.326;2023-04-21T06:32:39;19.02;;;12.25;;
44564;SDS011;30275;51.822;-0.326;2023-04-21T06:35:05;18.80;;;12.38;;
44564;SDS011;30275;51.822;-0.326;2023-04-21T06:37:31;18.70;;;12.50;;
44564;SDS011;30275;51.822;-0.326;2023-04-21T06:39:57;20.75;;;11.73;;
44564;SDS011;30275;51.822;-0.326;2023-04-21T06:42:22;18.42;;;10.35;;
44564;SDS011;30275;51.822;-0.326;2023-04-21T06:44:48;14.65;;;10.25;;
44564;SDS011;30275;51.822;-0.326;2023-04-21T06:47:13;16.23;;;9.80;;
44564;SDS011;30275;51.822;-0.326;2023-04-21T06:49:40;15.02;;;8.98;;
44564;SDS011;30275;51.822;-0.326;2023-04-21T06:52:06;14.73;;;9.02;;
44564;SDS011;30275;51.822;-0.326;2023-04-21T06:54:31;16.00;;;9.15;;
44564;SDS011;30275;51.822;-0.326;2023-04-21T06:56:57;12.40;;;8.80;;
44564;SDS011;30275;51.822;-0.326;2023-04-21T06:59:23;13.25;;;8.73;;
44564;SDS011;30275;51.822;-0.326;2023-04-21T07:01:48;13.90;;;8.27;;
44564;SDS011;30275;51.822;-0.326;2023-04-21T07:04:16;11.02;;;7.70;;
44564;SDS011;30275;51.822;-0.326;2023-04-21T07:06:42;12.82;;;8.27;;
44564;SDS011;30275;51.822;-0.326;2023-04-21T07:09:08;12.88;;;7.60;;
44564;SDS011;30275;51.822;-0.326;2023-04-21T07:11:33;10.95;;;7.70;;
44564;SDS011;30275;51.822;-0.326;2023-04-21T07:13:59;10.05;;;7.05;;
44564;SDS011;30275;51.822;-0.326;2023-04-21T07:16:26;10.57;;;6.78;;
44564;SDS011;30275;51.822;-0.326;2023-04-21T07:18:52;12.10;;;6.97;;
44564;SDS011;30275;51.822;-0.326;2023-04-21T07:21:17;11.38;;;6.80;;
44564;SDS011;30275;51.822;-0.326;2023-04-21T07:23:43;8.82;;;6.95;;
44564;SDS011;30275;51.822;-0.326;2023-04-21T07:26:08;11.05;;;7.43;;
44564;SDS011;30275;51.822;-0.326;2023-04-21T07:28:34;10.65;;;6.38;;
44564;SDS011;30275;51.822;-0.326;2023-04-21T07:31:00;9.02;;;6.43;;
44564;SDS011;30275;51.822;-0.326;2023-04-21T07:33:25;10.52;;;5.80;;
44564;SDS011;30275;51.822;-0.326;2023-04-21T07:35:51;8.15;;;6.15;;
44564;SDS011;30275;51.822;-0.326;2023-04-21T07:38:16;9.38;;;6.28;;
44564;SDS011;30275;51.822;-0.326;2023-04-21T07:40:42;8.23;;;6.00;;
44564;SDS011;30275;51.822;-0.326;2023-04-21T07:43:08;8.90;;;6.20;;
44564;SDS011;30275;51.822;-0.326;2023-04-21T07:45:33;10.55;;;6.28;;
44564;SDS011;30275;51.822;-0.326;2023-04-21T07:47:59;9.50;;;6.32;;
44564;SDS011;30275;51.822;-0.326;2023-04-21T07:50:24;8.88;;;6.38;;
44564;SDS011;30275;51.822;-0.326;2023-04-21T07:52:50;10.15;;;6.32;;
44564;SDS011;30275;51.822;-0.326;2023-04-21T07:55:16;9.20;;;6.13;;
44564;SDS011;30275;51.822;-0.326;2023-04-21T07:57:41;8.35;;;5.88;;
44564;SDS011;30275;51.822;-0.326;2023-04-21T08:00:07;9.60;;;5.70;;
44564;SDS011;30275;51.822;-0.326;2023-04-21T08:02:34;11.18;;;6.57;;
44564;SDS011;30275;51.822;-0.326;2023-04-21T08:04:59;9.57;;;5.60;;
44564;SDS011;30275;51.822;-0.326;2023-04-21T08:07:25;9.98;;;6.55;;
44564;SDS011;30275;51.822;-0.326;2023-04-21T08:09:50;8.23;;;6.13;;
44564;SDS011;30275;51.822;-0.326;2023-04-21T08:12:16;9.15;;;5.78;;
44564;SDS011;30275;51.822;-0.326;2023-04-21T08:14:42;8.88;;;6.30;;
44564;SDS011;30275;51.822;-0.326;2023-04-21T08:17:07;10.27;;;6.40;;
44564;SDS011;30275;51.822;-0.326;2023-04-21T08:19:33;11.57;;;6.55;;
44564;SDS011;30275;51.822;-0.326;2023-04-21T08:21:58;9.77;;;6.60;;
44564;SDS011;30275;51.822;-0.326;2023-04-21T08:24:24;8.20;;;5.57;;
44564;SDS011;30275;51.822;-0.326;2023-04-21T08:26:50;8.55;;;6.07;;
44564;SDS011;30275;51.822;-0.326;2023-04-21T08:29:16;9.18;;;5.90;;
44564;SDS011;30275;51.822;-0.326;2023-04-21T08:31:41;9.20;;;6.40;;
44564;SDS011;30275;51.822;-0.326;2023-04-21T08:34:07;8.75;;;6.07;;
44564;SDS011;30275;51.822;-0.326;2023-04-21T08:36:32;7.57;;;5.30;;
44564;SDS011;30275;51.822;-0.326;2023-04-21T08:38:58;9.90;;;5.78;;
44564;SDS011;30275;51.822;-0.326;2023-04-21T08:41:24;9.73;;;6.20;;
44564;SDS011;30275;51.822;-0.326;2023-04-21T08:43:50;8.43;;;5.32;;
44564;SDS011;30275;51.822;-0.326;2023-04-21T08:46:16;9.80;;;5.35;;
44564;SDS011;30275;51.822;-0.326;2023-04-21T08:48:42;6.70;;;4.82;;
44564;SDS011;30275;51.822;-0.326;2023-04-21T08:51:10;7.70;;;4.95;;
44564;SDS011;30275;51.822;-0.326;2023-04-21T08:53:39;9.30;;;5.25;;
44564;SDS011;30275;51.822;-0.326;2023-04-21T08:56:05;7.15;;;5.15;;
44564;SDS011;30275;51.822;-0.326;2023-04-21T08:58:31;6.68;;;5.35;;
44564;SDS011;30275;51.822;-0.326;2023-04-21T09:00:57;10.27;;;6.10;;
44564;SDS011;30275;51.822;-0.326;2023-04-21T09:03:23;7.05;;;5.30;;
44564;SDS011;30275;51.822;-0.326;2023-04-21T09:08:29;7.88;;;5.65;;
44564;SDS011;30275;51.822;-0.326;2023-04-21T09:10:55;8.63;;;5.70;;
44564;SDS011;30275;51.822;-0.326;2023-04-21T09:13:28;7.47;;;4.90;;
44564;SDS011;30275;51.822;-0.326;2023-04-21T09:15:55;7.65;;;5.25;;
44564;SDS011;30275;51.822;-0.326;2023-04-21T09:18:21;8.75;;;6.00;;
44564;SDS011;30275;51.822;-0.326;2023-04-21T09:20:50;6.70;;;5.90;;
44564;SDS011;30275;51.822;-0.326;2023-04-21T09:23:17;8.52;;;5.78;;
44564;SDS011;30275;51.822;-0.326;2023-04-21T09:25:44;6.75;;;5.65;;
44564;SDS011;30275;51.822;-0.326;2023-04-21T09:28:11;6.82;;;5.75;;
44564;SDS011;30275;51.822;-0.326;2023-04-21T09:30:38;8.40;;;6.03;;
44564;SDS011;30275;51.822;-0.326;2023-04-21T09:33:05;8.10;;;6.15;;
44564;SDS011;30275;51.822;-0.326;2023-04-21T09:35:33;9.15;;;5.15;;
44564;SDS011;30275;51.822;-0.326;2023-04-21T09:38:00;8.43;;;6.35;;
44564;SDS011;30275;51.822;-0.326;2023-04-21T09:40:27;8.27;;;5.75;;
44564;SDS011;30275;51.822;-0.326;2023-04-21T09:42:56;8.63;;;6.40;;
44564;SDS011;30275;51.822;-0.326;2023-04-21T09:45:23;7.95;;;6.07;;
44564;SDS011;30275;51.822;-0.326;2023-04-21T09:47:52;8.85;;;6.68;;
44564;SDS011;30275;51.822;-0.326;2023-04-21T09:50:20;9.43;;;6.60;;
44564;SDS011;30275;51.822;-0.326;2023-04-21T09:52:48;11.82;;;7.38;;
44564;SDS011;30275;51.822;-0.326;2023-04-21T09:55:15;9.10;;;7.30;;
44564;SDS011;30275;51.822;-0.326;2023-04-21T09:57:42;9.32;;;7.10;;
44564;SDS011;30275;51.822;-0.326;2023-04-21T10:00:11;9.63;;;7.80;;
44564;SDS011;30275;51.822;-0.326;2023-04-21T10:02:41;7.95;;;6.40;;
44564;SDS011;30275;51.822;-0.326;2023-04-21T10:05:16;12.63;;;7.80;;
44564;SDS011;30275;51.822;-0.326;2023-04-21T10:07:46;11.32;;;7.80;;
44564;SDS011;30275;51.822;-0.326;2023-04-21T10:10:27;11.07;;;7.57;;
44564;SDS011;30275;51.822;-0.326;2023-04-21T10:12:58;11.90;;;7.13;;
44564;SDS011;30275;51.822;-0.326;2023-04-21T10:15:34;11.38;;;7.65;;
44564;SDS011;30275;51.822;-0.326;2023-04-21T10:18:20;9.57;;;7.45;;
44564;SDS011;30275;51.822;-0.326;2023-04-21T10:23:28;10.05;;;6.93;;
44564;SDS011;30275;51.822;-0.326;2023-04-21T10:28:43;11.80;;;6.95;;
44564;SDS011;30275;51.822;-0.326;2023-04-21T10:36:32;9.95;;;6.78;;
44564;SDS011;30275;51.822;-0.326;2023-04-21T10:39:06;12.45;;;7.78;;
44564;SDS011;30275;51.822;-0.326;2023-04-21T10:41:33;13.73;;;8.07;;
44564;SDS011;30275;51.822;-0.326;2023-04-21T10:49:06;12.70;;;8.43;;
44564;SDS011;30275;51.822;-0.326;2023-04-21T10:51:47;13.63;;;8.55;;
44564;SDS011;30275;51.822;-0.326;2023-04-21T10:54:21;13.48;;;8.40;;
44564;SDS011;30275;51.822;-0.326;2023-04-21T10:56:48;11.35;;;7.95;;
44564;SDS011;30275;51.822;-0.326;2023-04-21T10:59:16;13.23;;;8.63;;
44564;SDS011;30275;51.822;-0.326;2023-04-21T11:01:43;13.40;;;8.15;;
44564;SDS011;30275;51.822;-0.326;2023-04-21T11:04:18;14.38;;;8.82;;
44564;SDS011;30275;51.822;-0.326;2023-04-21T11:09:34;14.15;;;8.82;;
44564;SDS011;30275;51.822;-0.326;2023-04-21T11:12:01;14.23;;;9.45;;
44564;SDS011;30275;51.822;-0.326;2023-04-21T11:14:29;12.98;;;10.00;;
44564;SDS011;30275;51.822;-0.326;2023-04-21T11:16:54;13.27;;;8.60;;
44564;SDS011;30275;51.822;-0.326;2023-04-21T11:19:20;14.02;;;9.23;;
44564;SDS011;30275;51.822;-0.326;2023-04-21T11:21:48;15.93;;;10.38;;
44564;SDS011;30275;51.822;-0.326;2023-04-21T11:24:14;15.60;;;10.68;;
44564;SDS011;30275;51.822;-0.326;2023-04-21T11:26:40;15.93;;;9.70;;
44564;SDS011;30275;51.822;-0.326;2023-04-21T11:29:09;11.70;;;8.88;;
44564;SDS011;30275;51.822;-0.326;2023-04-21T11:31:36;13.02;;;9.07;;
44564;SDS011;30275;51.822;-0.326;2023-04-21T11:34:04;17.35;;;10.43;;
44564;SDS011;30275;51.822;-0.326;2023-04-21T11:36:34;15.93;;;10.65;;
44564;SDS011;30275;51.822;-0.326;2023-04-21T11:39:04;17.33;;;10.15;;
44564;SDS011;30275;51.822;-0.326;2023-04-21T11:41:34;17.02;;;11.43;;
44564;SDS011;30275;51.822;-0.326;2023-04-21T11:44:01;17.20;;;12.65;;
44564;SDS011;30275;51.822;-0.326;2023-04-21T11:46:27;19.05;;;10.93;;
44564;SDS011;30275;51.822;-0.326;2023-04-21T11:49:00;11.02;;;6.82;;
44564;SDS011;30275;51.822;-0.326;2023-04-21T11:51:34;10.38;;;6.97;;
44564;SDS011;30275;51.822;-0.326;2023-04-21T11:54:05;12.82;;;8.55;;
44564;SDS011;30275;51.822;-0.326;2023-04-21T11:56:39;13.20;;;8.90;;
44564;SDS011;30275;51.822;-0.326;2023-04-21T11:59:06;17.52;;;10.77;;
44564;SDS011;30275;51.822;-0.326;2023-04-21T12:01:33;29.23;;;16.02;;
44564;SDS011;30275;51.822;-0.326;2023-04-21T12:03:59;28.73;;;17.38;;
44564;SDS011;30275;51.822;-0.326;2023-04-21T12:06:26;22.90;;;14.27;;
44564;SDS011;30275;51.822;-0.326;2023-04-21T12:08:56;17.73;;;12.57;;
44564;SDS011;30275;51.822;-0.326;2023-04-21T12:11:28;17.52;;;12.15;;
44564;SDS011;30275;51.822;-0.326;2023-04-21T12:13:56;15.15;;;12.10;;
44564;SDS011;30275;51.822;-0.326;2023-04-21T12:16:23;15.70;;;11.40;;
44564;SDS011;30275;51.822;-0.326;2023-04-21T12:18:51;17.83;;;11.73;;
44564;SDS011;30275;51.822;-0.326;2023-04-21T12:21:17;19.83;;;13.05;;
44564;SDS011;30275;51.822;-0.326;2023-04-21T12:23:43;20.48;;;13.52;;
44564;SDS011;30275;51.822;-0.326;2023-04-21T12:26:09;19.17;;;12.57;;
44564;SDS011;30275;51.822;-0.326;2023-04-21T12:28:36;19.30;;;11.98;;
44564;SDS011;30275;51.822;-0.326;2023-04-21T12:31:02;19.00;;;13.15;;
44564;SDS011;30275;51.822;-0.326;2023-04-21T12:33:28;19.83;;;13.07;;
44564;SDS011;30275;51.822;-0.326;2023-04-21T12:35:54;15.38;;;11.27;;
44564;SDS011;30275;51.822;-0.326;2023-04-21T12:38:20;15.00;;;10.95;;
44564;SDS011;30275;51.822;-0.326;2023-04-21T12:40:46;14.95;;;10.15;;
44564;SDS011;30275;51.822;-0.326;2023-04-21T12:43:12;19.10;;;12.25;;
44564;SDS011;30275;51.822;-0.326;2023-04-21T12:45:37;15.93;;;11.70;;
44564;SDS011;30275;51.822;-0.326;2023-04-21T12:48:03;16.35;;;11.95;;
44564;SDS011;30275;51.822;-0.326;2023-04-21T12:50:29;18.75;;;12.50;;
44564;SDS011;30275;51.822;-0.326;2023-04-21T12:52:54;19.23;;;12.35;;
44564;SDS011;30275;51.822;-0.326;2023-04-21T12:55:20;20.77;;;14.65;;
44564;SDS011;30275;51.822;-0.326;2023-04-21T12:57:46;21.85;;;14.85;;
44564;SDS011;30275;51.822;-0.326;2023-04-21T13:00:13;24.60;;;16.02;;
44564;SDS011;30275;51.822;-0.326;2023-04-21T13:02:40;20.33;;;14.65;;
44564;SDS011;30275;51.822;-0.326;2023-04-21T13:05:05;23.20;;;15.10;;
44564;SDS011;30275;51.822;-0.326;2023-04-21T13:07:33;23.45;;;15.15;;
44564;SDS011;30275;51.822;-0.326;2023-04-21T13:09:59;24.27;;;15.48;;
44564;SDS011;30275;51.822;-0.326;2023-04-21T13:12:25;24.45;;;15.27;;
44564;SDS011;30275;51.822;-0.326;2023-04-21T13:14:50;23.23;;;15.50;;
44564;SDS011;30275;51.822;-0.326;2023-04-21T13:17:16;25.50;;;17.65;;
44564;SDS011;30275;51.822;-0.326;2023-04-21T13:19:42;24.92;;;15.85;;
44564;SDS011;30275;51.822;-0.326;2023-04-21T13:22:07;23.83;;;15.93;;
44564;SDS011;30275;51.822;-0.326;2023-04-21T13:24:33;22.42;;;15.13;;
44564;SDS011;30275;51.822;-0.326;2023-04-21T13:26:59;20.27;;;14.07;;
44564;SDS011;30275;51.822;-0.326;2023-04-21T13:29:27;19.00;;;12.38;;
44564;SDS011;30275;51.822;-0.326;2023-04-21T13:31:54;20.02;;;14.15;;
44564;SDS011;30275;51.822;-0.326;2023-04-21T13:34:21;21.55;;;14.65;;
44564;SDS011;30275;51.822;-0.326;2023-04-21T13:36:46;23.23;;;15.25;;
44564;SDS011;30275;51.822;-0.326;2023-04-21T13:39:12;24.15;;;15.35;;
44564;SDS011;30275;51.822;-0.326;2023-04-21T13:41:38;21.80;;;14.40;;
44564;SDS011;30275;51.822;-0.326;2023-04-21T13:44:04;23.27;;;14.27;;
44564;SDS011;30275;51.822;-0.326;2023-04-21T13:46:30;19.00;;;13.27;;
44564;SDS011;30275;51.822;-0.326;2023-04-21T13:48:56;20.80;;;12.70;;
44564;SDS011;30275;51.822;-0.326;2023-04-21T13:51:22;21.13;;;13.70;;
44564;SDS011;30275;51.822;-0.326;2023-04-21T13:53:47;22.23;;;15.05;;
44564;SDS011;30275;51.822;-0.326;2023-04-21T13:56:13;22.52;;;14.30;;
44564;SDS011;30275;51.822;-0.326;2023-04-21T13:58:39;21.85;;;14.32;;
44564;SDS011;30275;51.822;-0.326;2023-04-21T14:01:05;22.95;;;14.82;;
44564;SDS011;30275;51.822;-0.326;2023-04-21T14:03:30;19.80;;;13.73;;
44564;SDS011;30275;51.822;-0.326;2023-04-21T14:05:56;18.02;;;11.00;;
44564;SDS011;30275;51.822;-0.326;2023-04-21T14:08:21;16.55;;;11.77;;
44564;SDS011;30275;51.822;-0.326;2023-04-21T14:10:47;20.27;;;14.57;;
44564;SDS011;30275;51.822;-0.326;2023-04-21T14:13:13;18.58;;;13.35;;
44564;SDS011;30275;51.822;-0.326;2023-04-21T14:15:38;17.13;;;12.65;;
44564;SDS011;30275;51.822;-0.326;2023-04-21T14:18:04;18.85;;;12.77;;
44564;SDS011;30275;51.822;-0.326;2023-04-21T14:20:29;18.80;;;12.68;;
44564;SDS011;30275;51.822;-0.326;2023-04-21T14:22:55;19.98;;;13.82;;
44564;SDS011;30275;51.822;-0.326;2023-04-21T14:25:21;16.67;;;13.05;;
44564;SDS011;30275;51.822;-0.326;2023-04-21T14:27:46;17.00;;;12.25;;
44564;SDS011;30275;51.822;-0.326;2023-04-21T14:30:12;18.95;;;12.82;;
44564;SDS011;30275;51.822;-0.326;2023-04-21T14:32:38;18.35;;;13.45;;